sensor_id;sensor_type;location;lat;lon;timestamp;P1;durP1;ratioP1;P2;durP2;ratioP2
16735;SDS011;17990;49.548;9.730;2023-05-23T00:00:02;11.77;;;7.83;;
16735;SDS011;17990;49.548;9.730;2023-05-23T00:02:31;10.20;;;8.37;;
16735;SDS011;17990;49.548;9.730;2023-05-23T00:04:58;9.10;;;8.20;;
16735;SDS011;17990;49.548;9.730;2023-05-23T00:07:27;9.40;;;8.33;;
16735;SDS011;17990;49.548;9.730;2023-05-23T00:09:56;9.43;;;8.53;;
16735;SDS011;17990;49.548;9.730;2023-05-23T00:12:24;12.50;;;8.93;;
16735;SDS011;17990;49.548;9.730;2023-05-23T00:14:51;11.27;;;9.40;;
16735;SDS011;17990;49.548;9.730;2023-05-23T00:17:18;11.40;;;9.33;;
16735;SDS011;17990;49.548;9.730;2023-05-23T00:19:46;8.90;;;8.10;;
16735;SDS011;17990;49.548;9.730;2023-05-23T00:22:12;10.10;;;8.47;;
16735;SDS011;17990;49.548;9.730;2023-05-23T00:24:40;11.17;;;8.60;;
16735;SDS011;17990;49.548;9.730;2023-05-23T00:27:07;10.00;;;8.40;;
16735;SDS011;17990;49.548;9.730;2023-05-23T00:29:35;10.47;;;8.30;;
16735;SDS011;17990;49.548;9.730;2023-05-23T00:32:02;11.47;;;8.60;;
16735;SDS011;17990;49.548;9.730;2023-05-23T00:34:29;10.10;;;8.43;;
16735;SDS011;17990;49.548;9.730;2023-05-23T00:36:56;9.83;;;8.83;;
16735;SDS011;17990;49.548;9.730;2023-05-23T00:39:23;10.57;;;8.97;;
16735;SDS011;17990;49.548;9.730;2023-05-23T00:41:50;10.80;;;8.77;;
16735;SDS011;17990;49.548;9.730;2023-05-23T00:44:17;10.47;;;9.37;;
16735;SDS011;17990;49.548;9.730;2023-05-23T00:46:48;10.57;;;9.33;;
16735;SDS011;17990;49.548;9.730;2023-05-23T00:49:18;11.87;;;9.10;;
16735;SDS011;17990;49.548;9.730;2023-05-23T00:51:46;10.00;;;9.00;;
16735;SDS011;17990;49.548;9.730;2023-05-23T00:54:14;9.27;;;8.27;;
16735;SDS011;17990;49.548;9.730;2023-05-23T00:56:43;9.70;;;8.70;;
16735;SDS011;17990;49.548;9.730;2023-05-23T00:59:10;9.07;;;8.17;;
16735;SDS011;17990;49.548;9.730;2023-05-23T01:01:38;11.77;;;9.20;;
16735;SDS011;17990;49.548;9.730;2023-05-23T01:04:07;11.30;;;9.67;;
16735;SDS011;17990;49.548;9.730;2023-05-23T01:06:35;12.70;;;9.97;;
16735;SDS011;17990;49.548;9.730;2023-05-23T01:09:02;10.63;;;9.17;;
16735;SDS011;17990;49.548;9.730;2023-05-23T01:11:31;10.57;;;9.43;;
16735;SDS011;17990;49.548;9.730;2023-05-23T01:14:06;10.13;;;9.13;;
16735;SDS011;17990;49.548;9.730;2023-05-23T01:16:39;10.80;;;9.50;;
16735;SDS011;17990;49.548;9.730;2023-05-23T01:19:20;11.13;;;9.97;;
16735;SDS011;17990;49.548;9.730;2023-05-23T01:22:10;11.23;;;9.50;;
16735;SDS011;17990;49.548;9.730;2023-05-23T01:24:48;12.30;;;9.53;;
16735;SDS011;17990;49.548;9.730;2023-05-23T01:27:24;12.13;;;9.40;;
16735;SDS011;17990;49.548;9.730;2023-05-23T01:30:15;10.57;;;9.47;;
16735;SDS011;17990;49.548;9.730;2023-05-23T01:32:45;10.63;;;9.00;;
16735;SDS011;17990;49.548;9.730;2023-05-23T01:35:13;10.20;;;8.97;;
16735;SDS011;17990;49.548;9.730;2023-05-23T01:37:45;11.30;;;9.83;;
16735;SDS011;17990;49.548;9.730;2023-05-23T01:40:11;13.57;;;10.60;;
16735;SDS011;17990;49.548;9.730;2023-05-23T01:42:38;12.13;;;9.77;;
16735;SDS011;17990;49.548;9.730;2023-05-23T01:45:08;13.37;;;10.27;;
16735;SDS011;17990;49.548;9.730;2023-05-23T01:47:36;12.50;;;10.03;;
16735;SDS011;17990;49.548;9.730;2023-05-23T01:50:05;11.77;;;10.57;;
16735;SDS011;17990;49.548;9.730;2023-05-23T01:52:34;15.30;;;11.50;;
16735;SDS011;17990;49.548;9.730;2023-05-23T01:55:02;11.10;;;9.83;;
16735;SDS011;17990;49.548;9.730;2023-05-23T01:57:34;11.37;;;9.90;;
16735;SDS011;17990;49.548;9.730;2023-05-23T02:00:02;12.20;;;8.97;;
16735;SDS011;17990;49.548;9.730;2023-05-23T02:02:32;21.97;;;16.67;;
16735;SDS011;17990;49.548;9.730;2023-05-23T02:04:59;21.13;;;15.93;;
16735;SDS011;17990;49.548;9.730;2023-05-23T02:07:26;19.00;;;14.43;;
16735;SDS011;17990;49.548;9.730;2023-05-23T02:09:53;16.23;;;12.70;;
16735;SDS011;17990;49.548;9.730;2023-05-23T02:12:20;17.37;;;12.33;;
16735;SDS011;17990;49.548;9.730;2023-05-23T02:14:47;17.97;;;12.50;;
16735;SDS011;17990;49.548;9.730;2023-05-23T02:17:16;12.97;;;10.93;;
16735;SDS011;17990;49.548;9.730;2023-05-23T02:19:44;15.03;;;11.63;;
16735;SDS011;17990;49.548;9.730;2023-05-23T02:22:11;12.17;;;10.87;;
16735;SDS011;17990;49.548;9.730;2023-05-23T02:24:38;11.77;;;10.10;;
16735;SDS011;17990;49.548;9.730;2023-05-23T02:27:05;12.47;;;10.10;;
16735;SDS011;17990;49.548;9.730;2023-05-23T02:29:32;11.17;;;9.57;;
16735;SDS011;17990;49.548;9.730;2023-05-23T02:31:59;11.83;;;10.13;;
16735;SDS011;17990;49.548;9.730;2023-05-23T02:34:25;15.37;;;10.60;;
16735;SDS011;17990;49.548;9.730;2023-05-23T02:36:54;14.43;;;10.97;;
16735;SDS011;17990;49.548;9.730;2023-05-23T02:39:20;16.70;;;10.83;;
16735;SDS011;17990;49.548;9.730;2023-05-23T02:41:47;11.40;;;10.20;;
16735;SDS011;17990;49.548;9.730;2023-05-23T02:44:14;14.63;;;11.83;;
16735;SDS011;17990;49.548;9.730;2023-05-23T02:46:43;14.87;;;10.47;;
16735;SDS011;17990;49.548;9.730;2023-05-23T02:49:10;14.40;;;11.63;;
16735;SDS011;17990;49.548;9.730;2023-05-23T02:51:37;13.80;;;11.33;;
16735;SDS011;17990;49.548;9.730;2023-05-23T02:54:05;12.33;;;10.67;;
16735;SDS011;17990;49.548;9.730;2023-05-23T02:56:32;13.20;;;10.70;;
16735;SDS011;17990;49.548;9.730;2023-05-23T02:58:59;13.57;;;10.70;;
16735;SDS011;17990;49.548;9.730;2023-05-23T03:01:25;13.03;;;11.07;;
16735;SDS011;17990;49.548;9.730;2023-05-23T03:03:52;13.77;;;11.60;;
16735;SDS011;17990;49.548;9.730;2023-05-23T03:06:19;15.80;;;12.00;;
16735;SDS011;17990;49.548;9.730;2023-05-23T03:08:46;15.73;;;13.00;;
16735;SDS011;17990;49.548;9.730;2023-05-23T03:11:15;15.83;;;12.70;;
16735;SDS011;17990;49.548;9.730;2023-05-23T03:13:41;22.93;;;14.87;;
16735;SDS011;17990;49.548;9.730;2023-05-23T03:16:08;16.93;;;14.17;;
16735;SDS011;17990;49.548;9.730;2023-05-23T03:18:36;19.23;;;15.27;;
16735;SDS011;17990;49.548;9.730;2023-05-23T03:21:05;22.07;;;15.93;;
16735;SDS011;17990;49.548;9.730;2023-05-23T03:23:33;18.87;;;14.53;;
16735;SDS011;17990;49.548;9.730;2023-05-23T03:26:00;25.13;;;15.47;;
16735;SDS011;17990;49.548;9.730;2023-05-23T03:28:29;20.03;;;15.87;;
16735;SDS011;17990;49.548;9.730;2023-05-23T03:30:56;19.33;;;15.67;;
16735;SDS011;17990;49.548;9.730;2023-05-23T03:33:23;19.83;;;16.97;;
16735;SDS011;17990;49.548;9.730;2023-05-23T03:35:50;22.70;;;16.63;;
16735;SDS011;17990;49.548;9.730;2023-05-23T03:38:17;18.77;;;15.17;;
16735;SDS011;17990;49.548;9.730;2023-05-23T03:40:44;21.33;;;15.07;;
16735;SDS011;17990;49.548;9.730;2023-05-23T03:43:11;21.90;;;15.53;;
16735;SDS011;17990;49.548;9.730;2023-05-23T03:45:39;24.93;;;18.97;;
16735;SDS011;17990;49.548;9.730;2023-05-23T03:48:06;26.33;;;18.77;;
16735;SDS011;17990;49.548;9.730;2023-05-23T03:50:33;26.33;;;19.60;;
16735;SDS011;17990;49.548;9.730;2023-05-23T03:53:00;24.67;;;19.03;;
16735;SDS011;17990;49.548;9.730;2023-05-23T03:55:27;27.13;;;20.17;;
16735;SDS011;17990;49.548;9.730;2023-05-23T03:57:56;24.50;;;20.40;;
16735;SDS011;17990;49.548;9.730;2023-05-23T04:00:22;23.43;;;19.33;;
16735;SDS011;17990;49.548;9.730;2023-05-23T04:02:51;24.23;;;19.20;;
16735;SDS011;17990;49.548;9.730;2023-05-23T04:05:18;24.13;;;19.50;;
16735;SDS011;17990;49.548;9.730;2023-05-23T04:07:45;24.70;;;18.87;;
16735;SDS011;17990;49.548;9.730;2023-05-23T04:10:12;22.10;;;19.10;;
16735;SDS011;17990;49.548;9.730;2023-05-23T04:12:39;26.03;;;20.07;;
16735;SDS011;17990;49.548;9.730;2023-05-23T04:15:07;24.43;;;19.27;;
16735;SDS011;17990;49.548;9.730;2023-05-23T04:17:35;21.57;;;19.00;;
16735;SDS011;17990;49.548;9.730;2023-05-23T04:20:04;24.27;;;19.03;;
16735;SDS011;17990;49.548;9.730;2023-05-23T04:22:33;23.30;;;18.87;;
16735;SDS011;17990;49.548;9.730;2023-05-23T04:25:00;24.53;;;17.90;;
16735;SDS011;17990;49.548;9.730;2023-05-23T04:27:27;22.20;;;17.70;;
16735;SDS011;17990;49.548;9.730;2023-05-23T04:29:54;19.97;;;17.87;;
16735;SDS011;17990;49.548;9.730;2023-05-23T04:32:22;22.97;;;17.77;;
16735;SDS011;17990;49.548;9.730;2023-05-23T04:34:49;22.20;;;17.70;;
16735;SDS011;17990;49.548;9.730;2023-05-23T04:37:17;21.90;;;17.63;;
16735;SDS011;17990;49.548;9.730;2023-05-23T04:39:49;21.07;;;17.17;;
16735;SDS011;17990;49.548;9.730;2023-05-23T04:42:17;21.83;;;18.10;;
16735;SDS011;17990;49.548;9.730;2023-05-23T04:44:48;23.37;;;18.37;;
16735;SDS011;17990;49.548;9.730;2023-05-23T04:47:15;23.13;;;18.23;;
16735;SDS011;17990;49.548;9.730;2023-05-23T04:49:43;24.47;;;19.03;;
16735;SDS011;17990;49.548;9.730;2023-05-23T04:52:10;20.67;;;17.50;;
16735;SDS011;17990;49.548;9.730;2023-05-23T04:54:38;19.87;;;16.77;;
16735;SDS011;17990;49.548;9.730;2023-05-23T04:57:08;24.10;;;17.47;;
16735;SDS011;17990;49.548;9.730;2023-05-23T04:59:36;21.23;;;16.53;;
16735;SDS011;17990;49.548;9.730;2023-05-23T05:02:03;23.23;;;17.27;;
16735;SDS011;17990;49.548;9.730;2023-05-23T05:04:30;23.43;;;17.07;;
16735;SDS011;17990;49.548;9.730;2023-05-23T05:06:57;20.53;;;17.13;;
16735;SDS011;17990;49.548;9.730;2023-05-23T05:09:24;24.93;;;16.73;;
16735;SDS011;17990;49.548;9.730;2023-05-23T05:11:52;18.33;;;16.30;;
16735;SDS011;17990;49.548;9.730;2023-05-23T05:14:19;17.00;;;15.20;;
16735;SDS011;17990;49.548;9.730;2023-05-23T05:16:46;18.83;;;15.80;;
16735;SDS011;17990;49.548;9.730;2023-05-23T05:19:14;16.37;;;14.53;;
16735;SDS011;17990;49.548;9.730;2023-05-23T05:21:41;18.30;;;13.63;;
16735;SDS011;17990;49.548;9.730;2023-05-23T05:24:07;18.70;;;14.83;;
16735;SDS011;17990;49.548;9.730;2023-05-23T05:26:35;16.03;;;14.33;;
16735;SDS011;17990;49.548;9.730;2023-05-23T05:29:03;19.07;;;15.20;;
16735;SDS011;17990;49.548;9.730;2023-05-23T05:31:30;17.00;;;15.27;;
16735;SDS011;17990;49.548;9.730;2023-05-23T05:33:57;18.63;;;15.20;;
16735;SDS011;17990;49.548;9.730;2023-05-23T05:36:23;16.60;;;14.90;;
16735;SDS011;17990;49.548;9.730;2023-05-23T05:38:50;16.25;;;13.77;;
16735;SDS011;17990;49.548;9.730;2023-05-23T05:41:18;17.52;;;15.63;;
16735;SDS011;17990;49.548;9.730;2023-05-23T05:43:46;19.20;;;15.27;;
16735;SDS011;17990;49.548;9.730;2023-05-23T05:46:14;22.20;;;15.80;;
16735;SDS011;17990;49.548;9.730;2023-05-23T05:48:41;16.60;;;14.55;;
16735;SDS011;17990;49.548;9.730;2023-05-23T05:51:08;17.00;;;15.20;;
16735;SDS011;17990;49.548;9.730;2023-05-23T05:53:34;16.95;;;15.20;;
16735;SDS011;17990;49.548;9.730;2023-05-23T05:56:01;16.88;;;14.88;;
16735;SDS011;17990;49.548;9.730;2023-05-23T05:58:29;16.07;;;13.77;;
16735;SDS011;17990;49.548;9.730;2023-05-23T06:00:56;16.83;;;13.23;;
16735;SDS011;17990;49.548;9.730;2023-05-23T06:03:25;16.07;;;12.30;;
16735;SDS011;17990;49.548;9.730;2023-05-23T06:05:52;14.03;;;11.80;;
16735;SDS011;17990;49.548;9.730;2023-05-23T06:08:19;12.97;;;11.67;;
16735;SDS011;17990;49.548;9.730;2023-05-23T06:10:46;13.63;;;10.77;;
16735;SDS011;17990;49.548;9.730;2023-05-23T06:13:12;14.43;;;10.57;;
16735;SDS011;17990;49.548;9.730;2023-05-23T06:15:39;11.13;;;9.80;;
16735;SDS011;17990;49.548;9.730;2023-05-23T06:18:06;10.68;;;9.27;;
16735;SDS011;17990;49.548;9.730;2023-05-23T06:20:34;12.27;;;9.10;;
16735;SDS011;17990;49.548;9.730;2023-05-23T06:23:01;10.75;;;8.45;;
16735;SDS011;17990;49.548;9.730;2023-05-23T06:25:29;11.85;;;9.32;;
16735;SDS011;17990;49.548;9.730;2023-05-23T06:27:56;12.15;;;9.63;;
16735;SDS011;17990;49.548;9.730;2023-05-23T06:30:23;13.63;;;10.38;;
16735;SDS011;17990;49.548;9.730;2023-05-23T06:32:50;9.95;;;9.05;;
16735;SDS011;17990;49.548;9.730;2023-05-23T06:35:17;9.23;;;8.20;;
16735;SDS011;17990;49.548;9.730;2023-05-23T06:37:45;9.18;;;8.27;;
16735;SDS011;17990;49.548;9.730;2023-05-23T06:40:12;11.43;;;8.02;;
16735;SDS011;17990;49.548;9.730;2023-05-23T06:42:39;11.50;;;8.10;;
16735;SDS011;17990;49.548;9.730;2023-05-23T06:45:06;11.73;;;7.83;;
16735;SDS011;17990;49.548;9.730;2023-05-23T06:47:34;12.13;;;7.43;;
16735;SDS011;17990;49.548;9.730;2023-05-23T06:50:01;9.17;;;7.70;;
16735;SDS011;17990;49.548;9.730;2023-05-23T06:52:29;8.67;;;6.50;;
16735;SDS011;17990;49.548;9.730;2023-05-23T06:54:57;9.00;;;7.03;;
16735;SDS011;17990;49.548;9.730;2023-05-23T06:57:24;9.57;;;7.20;;
16735;SDS011;17990;49.548;9.730;2023-05-23T06:59:50;6.93;;;6.33;;
16735;SDS011;17990;49.548;9.730;2023-05-23T07:02:17;7.33;;;6.63;;
16735;SDS011;17990;49.548;9.730;2023-05-23T07:04:44;12.37;;;6.57;;
16735;SDS011;17990;49.548;9.730;2023-05-23T07:07:11;10.17;;;6.23;;
16735;SDS011;17990;49.548;9.730;2023-05-23T07:09:38;6.73;;;6.03;;
16735;SDS011;17990;49.548;9.730;2023-05-23T07:12:07;7.47;;;6.27;;
16735;SDS011;17990;49.548;9.730;2023-05-23T07:14:33;7.15;;;5.82;;
16735;SDS011;17990;49.548;9.730;2023-05-23T07:17:02;8.93;;;6.37;;
16735;SDS011;17990;49.548;9.730;2023-05-23T07:19:29;6.45;;;5.57;;
16735;SDS011;17990;49.548;9.730;2023-05-23T07:21:56;7.22;;;5.97;;
16735;SDS011;17990;49.548;9.730;2023-05-23T07:24:23;9.07;;;5.97;;
16735;SDS011;17990;49.548;9.730;2023-05-23T07:26:50;6.00;;;5.40;;
16735;SDS011;17990;49.548;9.730;2023-05-23T07:29:18;8.13;;;4.93;;
16735;SDS011;17990;49.548;9.730;2023-05-23T07:31:45;5.90;;;5.30;;
16735;SDS011;17990;49.548;9.730;2023-05-23T07:34:11;7.00;;;5.07;;
16735;SDS011;17990;49.548;9.730;2023-05-23T07:36:38;5.33;;;4.83;;
16735;SDS011;17990;49.548;9.730;2023-05-23T07:39:06;5.93;;;4.03;;
16735;SDS011;17990;49.548;9.730;2023-05-23T07:41:33;8.43;;;3.83;;
16735;SDS011;17990;49.548;9.730;2023-05-23T07:44:00;4.17;;;3.77;;
16735;SDS011;17990;49.548;9.730;2023-05-23T07:46:28;7.33;;;4.20;;
16735;SDS011;17990;49.548;9.730;2023-05-23T07:48:55;4.20;;;3.90;;
16735;SDS011;17990;49.548;9.730;2023-05-23T07:51:22;5.03;;;4.40;;
16735;SDS011;17990;49.548;9.730;2023-05-23T07:53:48;4.30;;;3.83;;
16735;SDS011;17990;49.548;9.730;2023-05-23T07:56:16;5.30;;;4.77;;
16735;SDS011;17990;49.548;9.730;2023-05-23T07:58:42;4.80;;;4.30;;
16735;SDS011;17990;49.548;9.730;2023-05-23T08:01:09;6.17;;;4.80;;
16735;SDS011;17990;49.548;9.730;2023-05-23T08:03:38;5.30;;;4.70;;
16735;SDS011;17990;49.548;9.730;2023-05-23T08:06:05;5.27;;;4.70;;
16735;SDS011;17990;49.548;9.730;2023-05-23T08:08:33;7.20;;;4.80;;
16735;SDS011;17990;49.548;9.730;2023-05-23T08:11:01;6.40;;;5.03;;
16735;SDS011;17990;49.548;9.730;2023-05-23T08:13:28;5.65;;;5.03;;
16735;SDS011;17990;49.548;9.730;2023-05-23T08:15:56;6.80;;;4.97;;
16735;SDS011;17990;49.548;9.730;2023-05-23T08:18:23;6.47;;;5.87;;
16735;SDS011;17990;49.548;9.730;2023-05-23T08:20:52;6.40;;;5.70;;
16735;SDS011;17990;49.548;9.730;2023-05-23T08:23:19;9.23;;;6.83;;
16735;SDS011;17990;49.548;9.730;2023-05-23T08:25:46;8.33;;;7.43;;
16735;SDS011;17990;49.548;9.730;2023-05-23T08:28:13;7.73;;;6.93;;
16735;SDS011;17990;49.548;9.730;2023-05-23T08:30:40;8.97;;;6.97;;
16735;SDS011;17990;49.548;9.730;2023-05-23T08:33:07;11.23;;;7.00;;
16735;SDS011;17990;49.548;9.730;2023-05-23T08:35:34;9.85;;;6.47;;
16735;SDS011;17990;49.548;9.730;2023-05-23T08:38:03;7.10;;;6.40;;
16735;SDS011;17990;49.548;9.730;2023-05-23T08:40:31;8.27;;;6.10;;
16735;SDS011;17990;49.548;9.730;2023-05-23T08:43:01;5.80;;;5.25;;
16735;SDS011;17990;49.548;9.730;2023-05-23T08:45:28;8.43;;;6.38;;
16735;SDS011;17990;49.548;9.730;2023-05-23T08:47:55;6.10;;;5.50;;
16735;SDS011;17990;49.548;9.730;2023-05-23T08:50:27;6.25;;;5.68;;
16735;SDS011;17990;49.548;9.730;2023-05-23T08:52:56;6.07;;;4.40;;
16735;SDS011;17990;49.548;9.730;2023-05-23T08:55:26;5.57;;;5.07;;
16735;SDS011;17990;49.548;9.730;2023-05-23T08:57:54;6.25;;;4.75;;
16735;SDS011;17990;49.548;9.730;2023-05-23T09:00:24;5.18;;;4.63;;
16735;SDS011;17990;49.548;9.730;2023-05-23T09:02:51;4.97;;;3.90;;
16735;SDS011;17990;49.548;9.730;2023-05-23T09:05:18;4.15;;;3.28;;
16735;SDS011;17990;49.548;9.730;2023-05-23T09:07:46;5.43;;;3.33;;
16735;SDS011;17990;49.548;9.730;2023-05-23T09:10:15;3.97;;;3.30;;
16735;SDS011;17990;49.548;9.730;2023-05-23T09:12:43;4.57;;;3.85;;
16735;SDS011;17990;49.548;9.730;2023-05-23T09:15:10;3.38;;;2.95;;
16735;SDS011;17990;49.548;9.730;2023-05-23T09:17:37;4.30;;;3.00;;
16735;SDS011;17990;49.548;9.730;2023-05-23T09:20:09;3.95;;;2.63;;
16735;SDS011;17990;49.548;9.730;2023-05-23T09:22:38;2.90;;;2.53;;
16735;SDS011;17990;49.548;9.730;2023-05-23T09:25:05;3.17;;;2.60;;
16735;SDS011;17990;49.548;9.730;2023-05-23T09:27:33;2.67;;;2.47;;
16735;SDS011;17990;49.548;9.730;2023-05-23T09:30:05;3.22;;;2.25;;
16735;SDS011;17990;49.548;9.730;2023-05-23T09:32:33;3.90;;;2.50;;
16735;SDS011;17990;49.548;9.730;2023-05-23T09:35:01;4.47;;;2.55;;
16735;SDS011;17990;49.548;9.730;2023-05-23T09:37:30;5.03;;;2.22;;
16735;SDS011;17990;49.548;9.730;2023-05-23T09:39:58;3.70;;;2.15;;
16735;SDS011;17990;49.548;9.730;2023-05-23T09:42:30;5.20;;;2.20;;
16735;SDS011;17990;49.548;9.730;2023-05-23T09:44:58;2.70;;;2.30;;
16735;SDS011;17990;49.548;9.730;2023-05-23T09:47:27;3.65;;;2.40;;
16735;SDS011;17990;49.548;9.730;2023-05-23T09:49:54;3.42;;;2.30;;
16735;SDS011;17990;49.548;9.730;2023-05-23T09:52:21;3.60;;;2.67;;
16735;SDS011;17990;49.548;9.730;2023-05-23T09:54:48;2.67;;;2.47;;
16735;SDS011;17990;49.548;9.730;2023-05-23T09:57:15;2.15;;;1.95;;
16735;SDS011;17990;49.548;9.730;2023-05-23T09:59:44;2.40;;;2.20;;
16735;SDS011;17990;49.548;9.730;2023-05-23T10:02:22;3.47;;;2.10;;
16735;SDS011;17990;49.548;9.730;2023-05-23T10:05:21;2.80;;;2.30;;
16735;SDS011;17990;49.548;9.730;2023-05-23T10:07:58;3.40;;;2.08;;
16735;SDS011;17990;49.548;9.730;2023-05-23T10:10:29;5.03;;;2.17;;
16735;SDS011;17990;49.548;9.730;2023-05-23T10:12:58;2.10;;;1.90;;
16735;SDS011;17990;49.548;9.730;2023-05-23T10:15:29;4.35;;;2.42;;
16735;SDS011;17990;49.548;9.730;2023-05-23T10:18:04;2.17;;;1.98;;
16735;SDS011;17990;49.548;9.730;2023-05-23T10:20:35;3.38;;;2.40;;
16735;SDS011;17990;49.548;9.730;2023-05-23T10:23:06;2.30;;;2.10;;
16735;SDS011;17990;49.548;9.730;2023-05-23T10:25:34;2.05;;;1.90;;
16735;SDS011;17990;49.548;9.730;2023-05-23T10:28:01;4.95;;;2.17;;
16735;SDS011;17990;49.548;9.730;2023-05-23T10:30:30;2.67;;;1.90;;
16735;SDS011;17990;49.548;9.730;2023-05-23T10:32:57;1.95;;;1.75;;
16735;SDS011;17990;49.548;9.730;2023-05-23T10:35:31;2.30;;;2.10;;
16735;SDS011;17990;49.548;9.730;2023-05-23T10:38:07;5.35;;;2.35;;
16735;SDS011;17990;49.548;9.730;2023-05-23T10:40:45;3.35;;;1.80;;
16735;SDS011;17990;49.548;9.730;2023-05-23T10:43:21;2.42;;;2.20;;
16735;SDS011;17990;49.548;9.730;2023-05-23T10:45:54;2.17;;;1.90;;
16735;SDS011;17990;49.548;9.730;2023-05-23T10:48:22;2.83;;;2.20;;
16735;SDS011;17990;49.548;9.730;2023-05-23T10:51:04;4.38;;;2.45;;
16735;SDS011;17990;49.548;9.730;2023-05-23T10:53:33;3.55;;;2.33;;
16735;SDS011;17990;49.548;9.730;2023-05-23T10:56:06;2.42;;;2.22;;
16735;SDS011;17990;49.548;9.730;2023-05-23T10:58:35;3.03;;;2.60;;
16735;SDS011;17990;49.548;9.730;2023-05-23T11:01:04;3.20;;;2.75;;
16735;SDS011;17990;49.548;9.730;2023-05-23T11:03:33;7.53;;;3.00;;
16735;SDS011;17990;49.548;9.730;2023-05-23T11:06:04;3.65;;;2.60;;
16735;SDS011;17990;49.548;9.730;2023-05-23T11:08:37;2.70;;;2.50;;
16735;SDS011;17990;49.548;9.730;2023-05-23T11:11:06;3.22;;;2.60;;
16735;SDS011;17990;49.548;9.730;2023-05-23T11:13:53;2.65;;;2.33;;
16735;SDS011;17990;49.548;9.730;2023-05-23T11:16:27;2.20;;;2.00;;
16735;SDS011;17990;49.548;9.730;2023-05-23T11:21:54;6.13;;;2.47;;
16735;SDS011;17990;49.548;9.730;2023-05-23T11:27:16;2.55;;;2.20;;
16735;SDS011;17990;49.548;9.730;2023-05-23T11:29:54;3.85;;;2.40;;
16735;SDS011;17990;49.548;9.730;2023-05-23T11:32:23;3.50;;;2.50;;
16735;SDS011;17990;49.548;9.730;2023-05-23T11:34:54;5.22;;;3.08;;
16735;SDS011;17990;49.548;9.730;2023-05-23T11:37:25;2.45;;;2.25;;
16735;SDS011;17990;49.548;9.730;2023-05-23T11:39:53;3.78;;;2.25;;
16735;SDS011;17990;49.548;9.730;2023-05-23T11:42:21;4.07;;;2.47;;
16735;SDS011;17990;49.548;9.730;2023-05-23T11:44:48;4.45;;;2.40;;
16735;SDS011;17990;49.548;9.730;2023-05-23T11:47:15;3.35;;;2.60;;
16735;SDS011;17990;49.548;9.730;2023-05-23T11:49:43;2.70;;;2.50;;
16735;SDS011;17990;49.548;9.730;2023-05-23T11:52:11;3.60;;;2.72;;
16735;SDS011;17990;49.548;9.730;2023-05-23T11:54:40;2.50;;;2.30;;
16735;SDS011;17990;49.548;9.730;2023-05-23T11:57:07;3.25;;;2.08;;
16735;SDS011;17990;49.548;9.730;2023-05-23T11:59:35;4.10;;;2.53;;
16735;SDS011;17990;49.548;9.730;2023-05-23T12:02:04;2.40;;;2.20;;
16735;SDS011;17990;49.548;9.730;2023-05-23T12:04:33;3.47;;;2.20;;
16735;SDS011;17990;49.548;9.730;2023-05-23T12:07:03;4.55;;;1.83;;
16735;SDS011;17990;49.548;9.730;2023-05-23T12:09:31;3.45;;;1.80;;
16735;SDS011;17990;49.548;9.730;2023-05-23T12:12:08;4.30;;;1.67;;
16735;SDS011;17990;49.548;9.730;2023-05-23T12:14:35;2.63;;;1.85;;
16735;SDS011;17990;49.548;9.730;2023-05-23T12:17:08;2.38;;;2.15;;
16735;SDS011;17990;49.548;9.730;2023-05-23T12:19:36;3.25;;;2.10;;
16735;SDS011;17990;49.548;9.730;2023-05-23T12:22:04;2.60;;;1.85;;
16735;SDS011;17990;49.548;9.730;2023-05-23T12:24:32;2.72;;;2.22;;
16735;SDS011;17990;49.548;9.730;2023-05-23T12:27:01;3.60;;;2.50;;
16735;SDS011;17990;49.548;9.730;2023-05-23T12:29:29;6.55;;;3.20;;
16735;SDS011;17990;49.548;9.730;2023-05-23T12:31:57;8.63;;;2.90;;
16735;SDS011;17990;49.548;9.730;2023-05-23T12:34:25;3.50;;;3.20;;
16735;SDS011;17990;49.548;9.730;2023-05-23T12:36:53;3.45;;;2.95;;
16735;SDS011;17990;49.548;9.730;2023-05-23T12:39:23;3.35;;;2.85;;
16735;SDS011;17990;49.548;9.730;2023-05-23T12:41:51;6.72;;;3.30;;
16735;SDS011;17990;49.548;9.730;2023-05-23T12:44:21;3.38;;;2.50;;
16735;SDS011;17990;49.548;9.730;2023-05-23T12:46:48;3.67;;;2.60;;
16735;SDS011;17990;49.548;9.730;2023-05-23T12:49:15;3.10;;;2.80;;
16735;SDS011;17990;49.548;9.730;2023-05-23T12:51:42;2.60;;;2.40;;
16735;SDS011;17990;49.548;9.730;2023-05-23T12:54:09;3.00;;;2.60;;
16735;SDS011;17990;49.548;9.730;2023-05-23T12:56:35;3.95;;;2.88;;
16735;SDS011;17990;49.548;9.730;2023-05-23T12:59:02;3.65;;;2.30;;
16735;SDS011;17990;49.548;9.730;2023-05-23T13:01:31;4.65;;;2.63;;
16735;SDS011;17990;49.548;9.730;2023-05-23T13:03:58;3.35;;;2.20;;
16735;SDS011;17990;49.548;9.730;2023-05-23T13:06:25;2.40;;;2.10;;
16735;SDS011;17990;49.548;9.730;2023-05-23T13:08:52;2.58;;;2.20;;
16735;SDS011;17990;49.548;9.730;2023-05-23T13:11:19;12.38;;;2.85;;
16735;SDS011;17990;49.548;9.730;2023-05-23T13:13:47;3.13;;;2.20;;
16735;SDS011;17990;49.548;9.730;2023-05-23T13:16:14;3.03;;;2.55;;
16735;SDS011;17990;49.548;9.730;2023-05-23T13:18:43;3.17;;;2.05;;
16735;SDS011;17990;49.548;9.730;2023-05-23T13:21:10;2.50;;;2.30;;
16735;SDS011;17990;49.548;9.730;2023-05-23T13:23:37;3.65;;;2.20;;
16735;SDS011;17990;49.548;9.730;2023-05-23T13:26:04;3.50;;;1.80;;
16735;SDS011;17990;49.548;9.730;2023-05-23T13:28:32;3.90;;;2.05;;
16735;SDS011;17990;49.548;9.730;2023-05-23T13:30:59;2.45;;;2.05;;
16735;SDS011;17990;49.548;9.730;2023-05-23T13:33:27;3.50;;;1.98;;
16735;SDS011;17990;49.548;9.730;2023-05-23T13:35:56;2.78;;;1.90;;
16735;SDS011;17990;49.548;9.730;2023-05-23T13:38:23;3.13;;;2.15;;
16735;SDS011;17990;49.548;9.730;2023-05-23T13:40:51;2.50;;;1.80;;
16735;SDS011;17990;49.548;9.730;2023-05-23T13:43:19;2.05;;;1.67;;
16735;SDS011;17990;49.548;9.730;2023-05-23T13:45:46;2.42;;;2.03;;
16735;SDS011;17990;49.548;9.730;2023-05-23T13:48:13;3.95;;;2.20;;
16735;SDS011;17990;49.548;9.730;2023-05-23T13:50:40;2.05;;;1.85;;
16735;SDS011;17990;49.548;9.730;2023-05-23T13:53:09;2.63;;;2.00;;
16735;SDS011;17990;49.548;9.730;2023-05-23T13:55:40;3.33;;;2.05;;
16735;SDS011;17990;49.548;9.730;2023-05-23T13:58:09;1.92;;;1.75;;
16735;SDS011;17990;49.548;9.730;2023-05-23T14:00:36;2.13;;;1.92;;
16735;SDS011;17990;49.548;9.730;2023-05-23T14:03:03;3.28;;;1.80;;
16735;SDS011;17990;49.548;9.730;2023-05-23T14:05:32;1.95;;;1.67;;
16735;SDS011;17990;49.548;9.730;2023-05-23T14:07:59;2.80;;;1.75;;
16735;SDS011;17990;49.548;9.730;2023-05-23T14:10:28;1.77;;;1.65;;
16735;SDS011;17990;49.548;9.730;2023-05-23T14:12:55;2.63;;;2.05;;
16735;SDS011;17990;49.548;9.730;2023-05-23T14:15:21;4.22;;;2.05;;
16735;SDS011;17990;49.548;9.730;2023-05-23T14:17:48;2.17;;;1.80;;
16735;SDS011;17990;49.548;9.730;2023-05-23T14:20:19;3.22;;;1.77;;
16735;SDS011;17990;49.548;9.730;2023-05-23T14:22:46;1.67;;;1.52;;
16735;SDS011;17990;49.548;9.730;2023-05-23T14:25:13;1.98;;;1.52;;
16735;SDS011;17990;49.548;9.730;2023-05-23T14:27:41;1.83;;;1.20;;
16735;SDS011;17990;49.548;9.730;2023-05-23T14:30:09;1.67;;;1.48;;
16735;SDS011;17990;49.548;9.730;2023-05-23T14:32:36;2.05;;;1.42;;
16735;SDS011;17990;49.548;9.730;2023-05-23T14:35:04;2.53;;;1.42;;
16735;SDS011;17990;49.548;9.730;2023-05-23T14:37:32;2.33;;;1.58;;
16735;SDS011;17990;49.548;9.730;2023-05-23T14:39:59;2.08;;;1.35;;
16735;SDS011;17990;49.548;9.730;2023-05-23T14:42:27;3.90;;;1.50;;
16735;SDS011;17990;49.548;9.730;2023-05-23T14:44:55;3.22;;;1.20;;
16735;SDS011;17990;49.548;9.730;2023-05-23T14:47:22;4.35;;;1.40;;
16735;SDS011;17990;49.548;9.730;2023-05-23T14:49:49;4.28;;;1.58;;